Time;durP1;ratioP1;P1;durP2;ratioP2;P2;SDS_P1;SDS_P2;PMS_P1;PMS_P2;Temp;Humidity;BMP_temperature;BMP_pressure;BME280_temperature;BME280_humidity;BME280_pressure;Samples;Min_cycle;Max_cycle;Signal;HPM_P1;HPM_P2
2021/06/06 00:00:38;;;;;;;11.57;7.67;;;;;;;17.59;61.63;100321.36;1729543;82;21043;-66
2021/06/06 00:03:08;;;;;;;12.40;8.05;;;;;;;17.55;61.43;100326.20;1725830;81;21024;-66
2021/06/06 00:05:54;;;;;;;12.40;8.58;;;;;;;17.49;61.41;100325.53;1732947;82;21506;-66
2021/06/06 00:08:22;;;;;;;15.13;8.05;;;;;;;17.45;61.35;100321.56;1710314;81;21048;-66
2021/06/06 00:10:52;;;;;;;13.93;7.90;;;;;;;17.40;61.73;100322.06;1728373;80;21776;-67
2021/06/06 00:13:19;;;;;;;14.53;8.15;;;;;;;17.36;61.79;100319.91;1755014;80;21217;-66
2021/06/06 00:15:47;;;;;;;12.85;8.50;;;;;;;17.34;61.67;100323.24;1743423;81;21464;-69
2021/06/06 00:18:13;;;;;;;12.55;8.20;;;;;;;17.29;61.62;100317.59;1742496;80;21612;-67
2021/06/06 00:20:40;;;;;;;16.05;8.93;;;;;;;17.24;61.61;100316.25;1727292;81;21285;-67
2021/06/06 00:23:08;;;;;;;11.43;7.47;;;;;;;17.18;61.69;100318.28;1716742;81;21239;-67
2021/06/06 00:25:35;;;;;;;13.15;7.80;;;;;;;17.18;61.66;100313.44;1748259;81;21090;-68
2021/06/06 00:28:02;;;;;;;12.25;7.97;;;;;;;17.24;61.56;100315.44;1760447;80;21046;-67
2021/06/06 00:30:28;;;;;;;11.00;7.37;;;;;;;17.28;62.30;100314.09;1755740;81;21058;-67
2021/06/06 00:32:55;;;;;;;13.40;7.37;;;;;;;17.27;62.07;100315.92;1759792;81;21100;-68
2021/06/06 00:35:23;;;;;;;10.95;7.70;;;;;;;17.21;62.03;100316.59;1758007;81;21576;-67
2021/06/06 00:37:50;;;;;;;17.27;8.48;;;;;;;17.18;62.16;100312.96;1754740;80;21638;-68
2021/06/06 00:40:23;;;;;;;12.13;7.90;;;;;;;17.18;62.30;100318.28;1753922;80;21538;-67
2021/06/06 00:42:50;;;;;;;12.68;7.67;;;;;;;17.14;62.35;100310.29;1757770;80;21018;-67
2021/06/06 00:45:20;;;;;;;11.70;7.78;;;;;;;17.12;62.46;100314.95;1749165;81;21098;-68
2021/06/06 00:47:47;;;;;;;13.30;8.35;;;;;;;17.06;62.63;100308.95;1756833;80;21136;-68
2021/06/06 00:50:19;;;;;;;11.78;7.90;;;;;;;17.00;62.64;100310.47;1728375;80;21040;-69
2021/06/06 00:52:45;;;;;;;13.15;8.65;;;;;;;16.90;62.29;100307.97;1727615;82;21028;-68
2021/06/06 00:55:14;;;;;;;13.05;8.00;;;;;;;16.81;62.07;100312.94;1706015;82;21608;-68
2021/06/06 00:57:40;;;;;;;13.80;8.40;;;;;;;16.73;62.07;100311.59;1752760;80;21076;-68
2021/06/06 01:00:22;;;;;;;13.35;7.97;;;;;;;16.63;62.22;100304.28;1733420;81;21054;-67
2021/06/06 01:02:50;;;;;;;15.68;7.80;;;;;;;16.60;62.17;100301.44;1725345;80;21608;-68
2021/06/06 01:05:43;;;;;;;10.75;7.05;;;;;;;16.66;61.96;100309.23;1715184;81;21110;-67
2021/06/06 01:08:13;;;;;;;10.95;7.62;;;;;;;16.70;61.95;100311.92;1702686;81;21062;-68
2021/06/06 01:10:42;;;;;;;11.15;7.25;;;;;;;16.69;61.40;100303.60;1728064;82;21004;-67
2021/06/06 01:13:26;;;;;;;12.20;7.80;;;;;;;16.65;61.19;100304.44;1754936;80;21319;-68
2021/06/06 01:16:05;;;;;;;;;;;;;;;16.63;61.33;100308.27;1788610;79;21063;-68
2021/06/06 01:18:35;;;;;;;10.43;7.35;;;;;;;16.61;61.54;100304.92;1788873;78;20198;-67
2021/06/06 01:21:23;;;;;;;12.53;7.67;;;;;;;16.51;62.21;100309.90;1741950;80;21054;-68
2021/06/06 01:24:16;;;;;;;13.58;8.35;;;;;;;16.48;62.38;100302.25;1792726;78;21077;-66
2021/06/06 01:26:53;;;;;;;13.43;7.50;;;;;;;16.44;63.03;100304.06;1791983;78;21034;-66
2021/06/06 01:29:42;;;;;;;11.10;7.50;;;;;;;16.40;63.46;100302.23;1790528;78;21053;-66
2021/06/06 01:32:22;;;;;;;10.58;6.35;;;;;;;16.42;63.35;100296.26;1769263;79;20998;-67
2021/06/06 01:34:59;;;;;;;12.33;7.42;;;;;;;16.48;63.09;100299.59;1762266;79;21346;-67
2021/06/06 01:37:26;;;;;;;10.88;7.10;;;;;;;16.47;63.37;100300.58;1765279;79;21533;-66
2021/06/06 01:40:22;;;;;;;11.15;7.00;;;;;;;16.48;63.25;100294.80;1763945;79;21866;-67
2021/06/06 01:43:02;;;;;;;11.90;7.40;;;;;;;16.49;63.36;100292.45;1714652;81;21051;-67
2021/06/06 01:45:36;;;;;;;14.70;7.10;;;;;;;16.47;63.48;100290.47;1759504;80;21555;-68
2021/06/06 01:48:08;;;;;;;14.00;8.10;;;;;;;16.47;63.61;100287.81;1727813;80;21068;-67
2021/06/06 01:50:42;;;;;;;14.68;9.03;;;;;;;16.48;63.49;100290.30;1728979;81;21059;-67
2021/06/06 01:53:09;;;;;;;13.58;8.40;;;;;;;16.49;63.34;100285.81;1741429;80;21815;-68
2021/06/06 01:55:47;;;;;;;16.10;7.78;;;;;;;16.46;62.94;100288.31;1754768;80;21746;-68
2021/06/06 01:58:15;;;;;;;13.80;8.03;;;;;;;16.41;62.67;100290.63;1751744;79;21035;-67
2021/06/06 02:01:09;;;;;;;20.80;8.65;;;;;;;16.38;62.50;100292.78;1768921;79;21157;-67
2021/06/06 02:03:36;;;;;;;13.15;7.78;;;;;;;16.41;62.57;100291.96;1771462;79;21014;-67
2021/06/06 02:06:20;;;;;;;14.03;8.48;;;;;;;16.51;62.84;100290.48;1788900;78;21042;-67
2021/06/06 02:08:50;;;;;;;12.30;8.38;;;;;;;16.59;63.31;100294.97;1787358;78;21062;-67
2021/06/06 02:11:30;;;;;;;12.70;8.10;;;;;;;16.66;63.79;100291.50;1724479;81;21619;-68
2021/06/06 02:14:00;;;;;;;11.25;7.53;;;;;;;16.74;63.97;100301.28;1744151;80;21043;-67
2021/06/06 02:16:33;;;;;;;13.15;9.33;;;;;;;16.78;63.87;100299.97;1755322;78;21543;-68
2021/06/06 02:19:01;;;;;;;12.90;7.97;;;;;;;16.80;63.50;100295.31;1786774;78;22003;-66
2021/06/06 02:21:30;;;;;;;14.23;8.65;;;;;;;16.79;63.54;100301.62;1788047;79;21552;-67
2021/06/06 02:23:56;;;;;;;15.63;8.30;;;;;;;16.75;63.43;100302.13;1785502;78;21079;-67
2021/06/06 02:26:56;;;;;;;13.72;8.73;;;;;;;16.71;63.40;100300.31;1746592;79;21069;-67
2021/06/06 02:29:53;;;;;;;13.28;7.65;;;;;;;16.66;63.20;100299.94;1763750;79;22458;-67
2021/06/06 02:32:33;;;;;;;12.30;8.00;;;;;;;16.59;63.12;100302.93;1758845;79;21129;-68
2021/06/06 02:35:27;;;;;;;12.10;7.20;;;;;;;16.62;62.95;100303.94;1734400;80;21124;-68
2021/06/06 02:38:17;;;;;;;11.75;7.83;;;;;;;16.62;63.04;100303.43;1728506;81;21065;-67
2021/06/06 02:40:52;;;;;;;11.60;8.40;;;;;;;16.60;63.20;100302.77;1726637;80;21132;-68
2021/06/06 02:43:24;;;;;;;13.53;7.95;;;;;;;16.53;63.35;100311.89;1764295;79;21520;-67
2021/06/06 02:45:52;;;;;;;12.53;8.00;;;;;;;16.52;63.26;100310.25;1761814;79;21095;-67
2021/06/06 02:48:28;;;;;;;11.73;7.87;;;;;;;16.51;63.16;100313.06;1738450;80;21073;-68
2021/06/06 02:51:01;;;;;;;12.63;8.10;;;;;;;16.48;63.18;100308.89;1730496;79;22402;-68
2021/06/06 02:53:33;;;;;;;12.18;8.45;;;;;;;16.48;63.17;100312.06;1764901;79;21049;-67
2021/06/06 02:56:15;;;;;;;15.78;7.33;;;;;;;16.45;63.21;100314.52;1738018;81;21436;-67
2021/06/06 02:58:49;;;;;;;12.82;7.08;;;;;;;16.50;63.09;100311.39;1757768;79;21363;-67
2021/06/06 03:01:32;;;;;;;10.95;6.97;;;;;;;16.61;62.71;100318.20;1733997;81;21065;-67
2021/06/06 03:04:03;;;;;;;11.28;7.75;;;;;;;16.70;62.39;100318.56;1736917;80;21603;-68
2021/06/06 03:06:37;;;;;;;10.20;7.25;;;;;;;16.75;62.49;100316.23;1761618;79;21110;-68
2021/06/06 03:09:09;;;;;;;14.50;8.08;;;;;;;16.77;62.37;100331.52;1767196;79;21054;-67
2021/06/06 03:11:37;;;;;;;11.38;8.13;;;;;;;16.72;62.34;100323.20;1766439;79;21130;-67
2021/06/06 03:14:09;;;;;;;14.58;7.65;;;;;;;16.69;62.56;100320.40;1765383;79;21092;-69
2021/06/06 03:16:41;;;;;;;13.40;7.67;;;;;;;16.70;62.65;100315.39;1752284;80;21187;-68
2021/06/06 03:19:10;;;;;;;11.10;8.10;;;;;;;16.71;63.11;100314.92;1762865;79;21553;-70
2021/06/06 03:21:39;;;;;;;12.33;6.90;;;;;;;16.72;63.92;100315.23;1739649;80;21058;-69
2021/06/06 03:24:14;;;;;;;15.08;7.55;;;;;;;16.76;64.50;100317.91;1705766;80;21075;-66
2021/06/06 03:26:42;;;;;;;12.47;7.20;;;;;;;16.87;64.35;100326.08;1736082;80;21517;-67
2021/06/06 03:29:11;;;;;;;12.43;7.75;;;;;;;16.96;64.40;100334.88;1717239;80;22217;-68
2021/06/06 03:31:45;;;;;;;11.22;7.97;;;;;;;16.99;64.10;100334.05;1707319;82;21089;-67
2021/06/06 03:34:14;;;;;;;11.55;7.45;;;;;;;16.97;64.00;100334.72;1774257;79;21080;-66
2021/06/06 03:36:47;;;;;;;13.13;8.20;;;;;;;16.94;64.38;100324.41;1778270;79;21840;-67
2021/06/06 03:39:22;;;;;;;12.78;7.58;;;;;;;16.94;64.53;100327.58;1784238;78;21046;-70
2021/06/06 03:41:49;;;;;;;12.45;8.03;;;;;;;16.93;64.30;100329.89;1771589;78;21041;-67
2021/06/06 03:44:17;;;;;;;13.60;8.18;;;;;;;16.90;64.14;100331.06;1789410;78;21403;-66
2021/06/06 03:46:46;;;;;;;12.25;7.17;;;;;;;16.85;64.04;100329.41;1782669;79;21109;-67
2021/06/06 03:49:12;;;;;;;12.18;6.97;;;;;;;16.86;64.03;100331.90;1795044;78;21099;-67
2021/06/06 03:51:40;;;;;;;12.18;9.08;;;;;;;16.93;63.96;100328.08;1786723;79;21817;-68
2021/06/06 03:54:11;;;;;;;23.18;15.68;;;;;;;17.01;63.80;100338.72;1790923;78;21109;-67
2021/06/06 03:56:39;;;;;;;21.77;12.75;;;;;;;17.04;63.18;100335.70;1753867;81;21058;-66
2021/06/06 03:59:07;;;;;;;19.57;13.22;;;;;;;16.99;62.84;100327.91;1796730;78;21097;-68
2021/06/06 04:01:34;;;;;;;16.90;10.58;;;;;;;16.93;62.70;100333.88;1788552;78;21029;-69
2021/06/06 04:04:02;;;;;;;11.80;8.20;;;;;;;16.89;62.85;100334.71;1790477;78;21547;-66
2021/06/06 04:06:29;;;;;;;10.85;8.03;;;;;;;16.92;62.84;100333.56;1770047;78;21635;-66
2021/06/06 04:08:56;;;;;;;12.40;8.03;;;;;;;16.88;62.48;100329.91;1769965;79;21098;-65
2021/06/06 04:11:23;;;;;;;12.65;8.33;;;;;;;16.88;62.66;100329.08;1768272;78;21035;-67
2021/06/06 04:13:52;;;;;;;9.83;8.03;;;;;;;16.90;62.56;100327.91;1795200;78;21153;-66
2021/06/06 04:16:19;;;;;;;15.05;7.95;;;;;;;16.93;62.67;100335.20;1773151;79;21058;-66
2021/06/06 04:18:46;;;;;;;14.80;7.33;;;;;;;16.98;62.86;100334.20;1791526;78;21039;-66
2021/06/06 04:21:16;;;;;;;9.65;7.15;;;;;;;17.11;62.43;100332.39;1788724;78;21034;-66
2021/06/06 04:23:43;;;;;;;15.68;8.45;;;;;;;17.17;62.35;100329.90;1768356;79;22085;-66
2021/06/06 04:26:11;;;;;;;14.70;7.60;;;;;;;17.20;62.28;100330.08;1752792;79;21134;-67
2021/06/06 04:28:40;;;;;;;10.98;7.40;;;;;;;17.22;62.20;100324.91;1794099;78;21062;-66
2021/06/06 04:31:10;;;;;;;12.33;7.62;;;;;;;17.25;62.19;100324.58;1769084;79;21022;-67
2021/06/06 04:33:38;;;;;;;12.85;8.20;;;;;;;17.31;62.20;100327.05;1772011;79;21066;-67
2021/06/06 04:36:07;;;;;;;12.47;7.25;;;;;;;17.34;62.08;100330.71;1785842;78;21089;-65
2021/06/06 04:38:34;;;;;;;10.80;6.75;;;;;;;17.37;62.14;100329.56;1769574;79;21803;-66
2021/06/06 04:41:06;;;;;;;14.05;8.93;;;;;;;17.40;62.22;100333.19;1757713;79;21036;-65
2021/06/06 04:43:33;;;;;;;13.40;7.67;;;;;;;17.40;61.94;100322.55;1774049;79;21711;-66
2021/06/06 04:46:00;;;;;;;10.35;6.25;;;;;;;17.42;61.55;100325.38;1782539;79;21042;-65
2021/06/06 04:48:32;;;;;;;11.22;6.70;;;;;;;17.53;61.43;100328.17;1765242;78;21057;-67
2021/06/06 04:51:02;;;;;;;10.40;6.70;;;;;;;17.67;60.81;100326.67;1793633;79;21073;-66
2021/06/06 04:53:30;;;;;;;12.13;7.28;;;;;;;17.78;60.28;100325.45;1784553;78;21070;-66
2021/06/06 04:55:59;;;;;;;11.63;6.83;;;;;;;17.85;59.88;100328.27;1779803;79;21309;-66
2021/06/06 04:58:28;;;;;;;11.40;6.70;;;;;;;17.90;59.42;100324.62;1794437;78;21008;-65
2021/06/06 05:00:56;;;;;;;10.30;6.33;;;;;;;17.98;59.70;100332.06;1776708;78;21050;-66
2021/06/06 05:03:25;;;;;;;13.93;6.17;;;;;;;18.12;57.88;100324.35;1764759;80;21109;-68
2021/06/06 05:05:52;;;;;;;9.45;4.33;;;;;;;18.29;57.42;100322.44;1771407;79;21061;-67
2021/06/06 05:08:21;;;;;;;8.15;4.30;;;;;;;18.45;55.79;100326.86;1796189;78;22419;-67
2021/06/06 05:10:49;;;;;;;7.62;3.70;;;;;;;18.54;55.42;100320.45;1793842;79;21081;-67
2021/06/06 05:13:18;;;;;;;9.10;5.75;;;;;;;18.63;54.62;100322.08;1780588;78;21606;-68
2021/06/06 05:15:48;;;;;;;8.83;5.25;;;;;;;18.68;54.75;100323.70;1765861;79;22753;-68
2021/06/06 05:18:17;;;;;;;11.80;6.55;;;;;;;18.74;54.79;100327.01;1740378;80;21687;-68
2021/06/06 05:20:46;;;;;;;11.20;5.33;;;;;;;18.75;54.92;100331.83;1756945;79;21582;-67
2021/06/06 05:23:14;;;;;;;10.82;5.75;;;;;;;18.75;54.97;100332.64;1756143;79;21031;-67
2021/06/06 05:25:45;;;;;;;13.35;5.85;;;;;;;18.74;55.19;100324.34;1781532;79;21095;-68
2021/06/06 05:28:16;;;;;;;14.40;6.15;;;;;;;18.76;55.15;100330.80;1759147;79;21170;-68
2021/06/06 05:30:43;;;;;;;9.60;5.20;;;;;;;18.79;55.45;100324.30;1744972;80;22278;-68
2021/06/06 05:33:10;;;;;;;7.70;4.30;;;;;;;18.83;55.21;100328.28;1785852;78;20970;-68
2021/06/06 05:35:36;;;;;;;12.15;4.08;;;;;;;18.83;55.12;100329.13;1784937;80;21966;-68
2021/06/06 05:38:06;;;;;;;9.35;4.30;;;;;;;18.85;54.90;100331.63;1767920;78;21377;-68
2021/06/06 05:40:33;;;;;;;9.88;4.45;;;;;;;18.87;54.99;100332.27;1759094;80;21798;-68
2021/06/06 05:43:01;;;;;;;8.93;4.35;;;;;;;18.89;55.08;100334.25;1738136;78;20999;-68
2021/06/06 05:45:28;;;;;;;7.03;4.08;;;;;;;18.91;55.26;100336.22;1786544;79;20995;-68
2021/06/06 05:47:55;;;;;;;10.15;4.17;;;;;;;18.92;55.24;100328.05;1784308;79;22000;-68
2021/06/06 05:50:25;;;;;;;9.83;3.30;;;;;;;18.93;55.33;100326.23;1783078;78;20978;-68
2021/06/06 05:52:55;;;;;;;7.87;4.75;;;;;;;18.96;55.38;100327.19;1779538;78;21148;-67
2021/06/06 05:55:21;;;;;;;7.22;4.15;;;;;;;19.00;55.25;100331.17;1763546;79;21052;-66
2021/06/06 05:57:48;;;;;;;8.73;4.70;;;;;;;19.01;55.68;100328.80;1780628;80;21003;-66
2021/06/06 06:00:22;;;;;;;6.97;4.90;;;;;;;19.03;55.86;100325.48;1765868;78;21810;-66
2021/06/06 06:02:49;;;;;;;9.30;5.28;;;;;;;19.05;56.50;100322.13;1735092;81;20994;-66
2021/06/06 06:05:15;;;;;;;10.55;4.45;;;;;;;19.16;56.50;100324.84;1735891;80;21020;-66
2021/06/06 06:07:42;;;;;;;7.75;4.25;;;;;;;19.30;56.29;100320.58;1755771;80;21406;-67
2021/06/06 06:10:11;;;;;;;6.70;4.08;;;;;;;19.42;56.21;100324.45;1768539;79;20963;-66
2021/06/06 06:12:38;;;;;;;9.18;4.30;;;;;;;19.47;55.87;100322.06;1758247;79;21039;-66
2021/06/06 06:15:08;;;;;;;6.53;3.45;;;;;;;19.52;54.98;100326.01;1757614;79;21352;-66
2021/06/06 06:17:35;;;;;;;7.72;3.77;;;;;;;19.57;54.87;100326.28;1731370;81;21146;-66
2021/06/06 06:20:09;;;;;;;7.45;4.03;;;;;;;19.59;54.28;100328.29;1772444;80;21021;-67
2021/06/06 06:22:36;;;;;;;6.70;3.42;;;;;;;19.61;54.17;100324.41;1731845;81;21113;-66
2021/06/06 06:25:06;;;;;;;7.33;3.30;;;;;;;19.64;53.63;100324.56;1728898;80;21117;-66
2021/06/06 06:27:33;;;;;;;6.47;3.10;;;;;;;19.65;53.37;100327.53;1730326;81;21076;-68
2021/06/06 06:30:13;;;;;;;6.70;3.22;;;;;;;19.67;52.85;100324.20;1730944;81;21113;-68
2021/06/06 06:32:40;;;;;;;6.12;2.47;;;;;;;19.70;52.22;100325.14;1760107;81;21544;-67
2021/06/06 06:35:08;;;;;;;7.90;2.98;;;;;;;19.73;52.28;100319.95;1757159;80;21343;-67
2021/06/06 06:37:35;;;;;;;9.15;3.30;;;;;;;19.74;51.95;100318.95;1725432;81;21564;-69
2021/06/06 06:40:07;;;;;;;4.90;2.17;;;;;;;19.75;51.74;100318.77;1758514;80;21025;-68
2021/06/06 06:42:33;;;;;;;5.53;2.83;;;;;;;19.76;51.16;100323.11;1684984;82;21118;-68
2021/06/06 06:44:59;;;;;;;5.53;2.72;;;;;;;19.76;51.13;100320.95;1759749;80;21005;-68
2021/06/06 06:47:28;;;;;;;5.05;2.42;;;;;;;19.77;50.97;100325.27;1732833;81;21065;-69
2021/06/06 06:49:55;;;;;;;4.75;2.12;;;;;;;19.80;51.56;100327.57;1753952;80;21149;-66
2021/06/06 06:52:24;;;;;;;8.63;3.12;;;;;;;19.85;51.05;100318.02;1727707;81;21079;-67
2021/06/06 06:54:51;;;;;;;5.60;1.80;;;;;;;19.90;51.37;100317.95;1739062;80;21787;-70
2021/06/06 06:57:17;;;;;;;4.83;1.82;;;;;;;19.95;50.45;100317.70;1709869;82;20990;-67
2021/06/06 06:59:43;;;;;;;5.83;2.02;;;;;;;19.99;49.74;100310.17;1717133;82;21469;-68
2021/06/06 07:02:10;;;;;;;4.25;1.70;;;;;;;20.03;49.70;100314.12;1737167;80;21082;-67
2021/06/06 07:04:36;;;;;;;4.83;1.67;;;;;;;20.10;49.40;100312.86;1732706;80;21710;-68
2021/06/06 07:07:04;;;;;;;4.22;1.72;;;;;;;20.13;49.34;100315.16;1736874;80;21816;-71
2021/06/06 07:09:31;;;;;;;4.90;2.10;;;;;;;20.15;48.80;100312.61;1766040;80;21542;-69
2021/06/06 07:11:58;;;;;;;5.97;1.80;;;;;;;20.15;48.73;100315.28;1730315;81;21101;-68
2021/06/06 07:14:25;;;;;;;6.30;2.00;;;;;;;20.14;48.17;100310.97;1776191;78;21058;-69
2021/06/06 07:16:51;;;;;;;5.08;2.22;;;;;;;20.11;48.40;100315.87;1783094;80;21032;-69
2021/06/06 07:19:19;;;;;;;5.25;2.42;;;;;;;20.09;48.77;100312.05;1781490;78;21026;-68
2021/06/06 07:21:46;;;;;;;7.80;2.65;;;;;;;20.10;49.09;100308.34;1778048;78;21066;-69
2021/06/06 07:24:13;;;;;;;11.15;3.10;;;;;;;20.12;50.04;100310.83;1765516;79;21117;-68
2021/06/06 07:26:44;;;;;;;6.67;2.77;;;;;;;20.16;49.70;100308.94;1779507;80;21590;-69
2021/06/06 07:29:13;;;;;;;4.40;2.35;;;;;;;20.19;49.77;100303.71;1768073;79;22222;-68
2021/06/06 07:31:40;;;;;;;6.72;2.45;;;;;;;20.22;50.08;100309.53;1776984;80;22201;-69
2021/06/06 07:34:07;;;;;;;5.95;2.55;;;;;;;20.29;50.48;100306.09;1755782;79;21948;-68
2021/06/06 07:36:34;;;;;;;5.30;2.55;;;;;;;20.40;50.46;100312.28;1768711;79;21025;-71
2021/06/06 07:39:05;;;;;;;5.45;2.27;;;;;;;20.47;49.97;100313.70;1765408;80;21013;-69
2021/06/06 07:41:31;;;;;;;3.85;1.82;;;;;;;20.50;49.34;100315.99;1761184;79;21099;-68
2021/06/06 07:43:58;;;;;;;5.65;2.00;;;;;;;20.49;49.82;100315.66;1742867;80;21103;-69
2021/06/06 07:46:25;;;;;;;4.80;1.75;;;;;;;20.52;49.83;100319.30;1745265;80;21100;-69
2021/06/06 07:48:52;;;;;;;4.78;1.40;;;;;;;20.51;49.24;100313.62;1737207;80;22198;-69
2021/06/06 07:51:21;;;;;;;6.12;1.70;;;;;;;20.48;50.08;100316.17;1782339;78;21709;-69
2021/06/06 07:53:49;;;;;;;5.22;1.98;;;;;;;20.45;50.36;100314.39;1787270;78;22418;-68
2021/06/06 07:56:16;;;;;;;4.90;1.90;;;;;;;20.44;50.53;100318.89;1787928;78;21165;-67
2021/06/06 07:58:45;;;;;;;4.37;1.70;;;;;;;20.48;51.20;100317.52;1760305;80;21076;-67
2021/06/06 08:01:12;;;;;;;3.55;1.65;;;;;;;20.54;51.56;100322.59;1756545;79;21076;-70
2021/06/06 08:03:38;;;;;;;4.97;2.08;;;;;;;20.56;51.37;100325.42;1745974;80;22382;-68
2021/06/06 08:06:07;;;;;;;5.15;1.80;;;;;;;20.55;51.59;100321.08;1774439;78;21061;-68
2021/06/06 08:08:34;;;;;;;7.37;2.17;;;;;;;20.58;52.57;100319.88;1787175;79;22656;-70
2021/06/06 08:11:03;;;;;;;4.70;2.00;;;;;;;20.60;53.86;100324.52;1776127;78;21023;-68
2021/06/06 08:13:29;;;;;;;5.95;2.05;;;;;;;20.57;54.04;100333.73;1771260;78;21040;-69
2021/06/06 08:15:58;;;;;;;5.50;2.10;;;;;;;20.50;54.44;100331.51;1717055;81;21109;-69
2021/06/06 08:18:31;;;;;;;6.53;1.95;;;;;;;20.39;54.59;100328.84;1751129;80;21342;-69
2021/06/06 08:21:12;;;;;;;5.03;2.50;;;;;;;20.28;54.86;100339.19;1725891;81;22442;-71
2021/06/06 08:23:38;;;;;;;6.08;2.45;;;;;;;20.17;55.35;100338.66;1751473;80;21014;-68
2021/06/06 08:26:06;;;;;;;4.80;1.98;;;;;;;20.09;55.88;100340.09;1725094;82;20990;-70
2021/06/06 08:28:33;;;;;;;4.55;1.92;;;;;;;20.05;56.23;100340.12;1727101;81;21037;-68
2021/06/06 08:31:13;;;;;;;4.60;2.22;;;;;;;20.00;56.31;100338.00;1721503;81;21987;-70
2021/06/06 08:33:40;;;;;;;3.58;1.60;;;;;;;19.96;56.28;100343.41;1701942;81;21075;-71
2021/06/06 08:36:14;;;;;;;5.47;1.82;;;;;;;19.95;56.38;100339.07;1725975;81;21061;-69
2021/06/06 08:38:42;;;;;;;6.37;2.22;;;;;;;19.98;56.36;100344.56;1724721;81;20991;-69
2021/06/06 08:41:22;;;;;;;4.20;1.70;;;;;;;19.99;56.38;100342.22;1757661;80;20975;-69
2021/06/06 08:44:21;;;;;;;5.00;2.30;;;;;;;20.02;56.28;100347.17;1743239;80;21033;-68
2021/06/06 08:47:09;;;;;;;4.53;1.70;;;;;;;20.05;56.51;100346.80;1635586;85;22600;-68
2021/06/06 08:49:45;;;;;;;5.47;1.57;;;;;;;20.14;56.86;100345.70;1705791;81;21694;-68
2021/06/06 08:52:38;;;;;;;3.87;1.40;;;;;;;20.28;56.35;100348.53;1730197;81;21049;-68
2021/06/06 08:55:22;;;;;;;4.53;1.77;;;;;;;20.36;55.97;100349.25;1719720;81;21025;-68
2021/06/06 08:57:52;;;;;;;6.55;1.82;;;;;;;20.39;55.73;100350.70;1745976;80;21075;-68
2021/06/06 09:00:31;;;;;;;4.87;1.90;;;;;;;20.41;55.78;100356.19;1767832;80;21962;-68
2021/06/06 09:03:01;;;;;;;7.90;1.85;;;;;;;20.39;55.79;100354.22;1720778;81;21067;-68
2021/06/06 09:05:32;;;;;;;4.70;1.57;;;;;;;20.43;56.00;100351.18;1729056;81;21504;-68
2021/06/06 09:08:00;;;;;;;3.50;1.57;;;;;;;20.45;56.08;100349.95;1756287;80;21132;-69
2021/06/06 09:10:34;;;;;;;5.28;1.80;;;;;;;20.49;55.75;100343.73;1759644;80;21028;-68
2021/06/06 09:13:02;;;;;;;4.60;1.75;;;;;;;20.52;55.66;100348.70;1707039;82;21074;-68
2021/06/06 09:15:28;;;;;;;4.80;1.50;;;;;;;20.55;55.98;100346.47;1781339;78;21063;-67
2021/06/06 09:19:23;;;;;;;4.90;1.62;;;;;;;20.68;56.11;100334.28;1859516;74;23245;-69
2021/06/06 09:22:02;;;;;;;3.42;1.50;;;;;;;20.69;55.83;100339.44;1811144;77;20984;-69
2021/06/06 09:24:41;;;;;;;5.22;1.92;;;;;;;20.75;54.89;100335.20;1826905;76;21105;-67
2021/06/06 09:27:24;;;;;;;4.62;1.87;;;;;;;20.81;54.06;100338.42;1816687;77;20919;-67
2021/06/06 09:30:15;;;;;;;4.80;1.72;;;;;;;20.87;53.08;100340.86;1840790;76;20927;-68
2021/06/06 09:32:42;;;;;;;4.22;1.60;;;;;;;20.93;51.94;100338.25;1841517;77;21038;-67
2021/06/06 09:35:30;;;;;;;6.67;1.80;;;;;;;20.99;51.37;100337.16;1830053;76;21085;-68
2021/06/06 09:38:18;;;;;;;4.40;1.72;;;;;;;21.06;51.61;100337.52;1813548;77;21107;-68
2021/06/06 09:40:46;;;;;;;3.83;1.75;;;;;;;21.13;51.95;100330.89;1835773;77;21016;-68
2021/06/06 09:43:31;;;;;;;5.15;1.85;;;;;;;21.20;52.54;100331.80;1827247;76;21635;-67
2021/06/06 09:46:17;;;;;;;7.15;2.02;;;;;;;21.25;53.11;100328.51;1837938;76;21131;-68
2021/06/06 09:48:45;;;;;;;5.20;2.15;;;;;;;21.26;52.01;100329.66;1825658;77;21029;-68
2021/06/06 09:51:29;;;;;;;6.58;1.75;;;;;;;21.23;52.19;100336.76;1826110;77;21253;-71
2021/06/06 09:54:15;;;;;;;3.87;1.65;;;;;;;21.20;53.12;100333.13;1824303;77;21013;-69
2021/06/06 09:56:53;;;;;;;5.10;2.30;;;;;;;21.18;53.68;100333.81;1834268;77;21498;-71
2021/06/06 09:59:31;;;;;;;3.87;1.70;;;;;;;21.16;53.30;100329.17;1835349;77;21074;-69
2021/06/06 10:02:12;;;;;;;5.17;2.45;;;;;;;21.11;52.71;100326.25;1825427;77;21038;-69
2021/06/06 10:04:44;;;;;;;5.15;2.25;;;;;;;21.06;54.40;100329.49;1813214;76;21976;-69
2021/06/06 10:07:19;;;;;;;4.90;2.52;;;;;;;20.98;55.36;100325.64;1834608;76;21516;-69
2021/06/06 10:09:51;;;;;;;5.63;2.30;;;;;;;20.92;55.65;100316.52;1809713;76;21042;-69
2021/06/06 10:12:35;;;;;;;5.70;2.20;;;;;;;20.86;56.43;100313.79;1800973;79;21026;-69
2021/06/06 10:15:07;;;;;;;5.85;2.15;;;;;;;20.82;56.48;100312.53;1774973;79;21078;-69
2021/06/06 10:17:44;;;;;;;6.47;2.65;;;;;;;20.85;57.33;100317.50;1768365;79;22543;-69
2021/06/06 10:20:38;;;;;;;5.42;2.33;;;;;;;20.85;57.57;100311.63;1804935;77;21027;-70
2021/06/06 10:23:16;;;;;;;6.42;2.50;;;;;;;20.83;57.95;100306.99;1753324;78;21006;-69
2021/06/06 10:25:58;;;;;;;4.40;2.10;;;;;;;20.80;57.98;100310.56;1810234;77;21070;-67
2021/06/06 10:28:33;;;;;;;6.90;2.12;;;;;;;20.82;57.81;100307.19;1800921;79;21004;-66
2021/06/06 10:31:20;;;;;;;5.08;2.40;;;;;;;20.84;57.62;100311.30;1769259;79;21034;-68
2021/06/06 10:33:57;;;;;;;4.92;2.35;;;;;;;20.86;57.15;100300.42;1776950;79;21547;-68
2021/06/06 10:36:26;;;;;;;5.92;2.62;;;;;;;20.84;56.55;100305.14;1807665;77;21537;-68
2021/06/06 10:38:52;;;;;;;4.92;2.80;;;;;;;20.84;56.81;100292.59;1773340;77;22658;-68
2021/06/06 10:41:42;;;;;;;6.85;2.70;;;;;;;20.82;56.07;100286.61;1800978;77;21061;-67
2021/06/06 10:44:24;;;;;;;5.95;2.33;;;;;;;20.81;55.77;100286.80;1788154;78;21157;-67
2021/06/06 10:46:55;;;;;;;6.78;2.37;;;;;;;20.83;56.28;100277.58;1798545;77;21046;-67
2021/06/06 10:49:38;;;;;;;6.80;2.05;;;;;;;20.87;55.18;100277.50;1793741;77;21003;-69
2021/06/06 10:52:27;;;;;;;5.75;2.37;;;;;;;20.94;55.63;100271.69;1800084;77;21108;-67
2021/06/06 10:54:57;;;;;;;4.33;1.80;;;;;;;21.05;53.06;100269.53;1773273;77;21038;-67
2021/06/06 10:57:33;;;;;;;5.53;2.30;;;;;;;21.09;52.44;100268.92;1789772;78;21038;-67
2021/06/06 11:00:10;;;;;;;4.28;2.15;;;;;;;21.17;53.13;100263.95;1805855;77;21078;-68
2021/06/06 11:02:40;;;;;;;5.08;1.90;;;;;;;21.31;51.69;100260.31;1802522;79;21081;-67
2021/06/06 11:05:12;;;;;;;4.58;2.12;;;;;;;21.44;51.64;100254.23;1784939;77;21088;-67
2021/06/06 11:07:43;;;;;;;5.37;2.08;;;;;;;21.58;51.32;100251.13;1766558;79;20999;-67
2021/06/06 11:10:22;;;;;;;5.72;2.05;;;;;;;21.73;51.40;100247.51;1791538;77;21913;-67
2021/06/06 11:12:54;;;;;;;5.22;1.55;;;;;;;21.88;50.07;100239.63;1796800;77;21078;-67
2021/06/06 11:15:38;;;;;;;4.05;1.75;;;;;;;22.00;49.54;100234.52;1804326;77;21030;-67
2021/06/06 11:18:13;;;;;;;6.20;1.90;;;;;;;22.08;49.01;100229.50;1788902;77;21082;-67
2021/06/06 11:21:03;;;;;;;3.80;1.35;;;;;;;22.17;49.84;100224.25;1797639;77;21492;-67
2021/06/06 11:23:41;;;;;;;7.08;2.05;;;;;;;22.30;49.27;100225.35;1777764;79;21795;-67
2021/06/06 11:26:35;;;;;;;4.50;1.70;;;;;;;22.48;49.35;100223.39;1791858;77;21493;-67
2021/06/06 11:29:21;;;;;;;4.72;2.05;;;;;;;22.63;48.76;100217.34;1781473;79;21033;-67
2021/06/06 11:32:30;;;;;;;4.80;2.02;;;;;;;22.80;47.11;100211.05;1793942;77;21080;-68
2021/06/06 11:35:08;;;;;;;3.92;1.82;;;;;;;22.88;46.33;100214.02;1794796;77;21080;-67
2021/06/06 11:37:45;;;;;;;3.90;2.05;;;;;;;22.89;46.52;100204.94;1809771;77;21918;-69
2021/06/06 11:40:27;;;;;;;8.05;2.65;;;;;;;22.93;46.92;100202.98;1803930;77;21499;-69
2021/06/06 11:43:03;;;;;;;6.90;2.50;;;;;;;22.98;46.44;100205.86;1790163;77;21069;-68
2021/06/06 11:45:39;;;;;;;6.17;2.80;;;;;;;23.02;45.48;100200.09;1782380;79;21033;-67
2021/06/06 11:48:30;;;;;;;5.03;2.20;;;;;;;23.03;45.49;100199.84;1809843;79;21043;-68